Time;durP1;ratioP1;P1;durP2;ratioP2;P2;SDS_P1;SDS_P2;PMS_P1;PMS_P2;Temp;Humidity;BMP_temperature;BMP_pressure;BME280_temperature;BME280_humidity;BME280_pressure;Samples;Min_cycle;Max_cycle;Signal;HPM_P1;HPM_P2
2021/08/09 00:01:44;;;;;;;7.22;4.00;;;;;;;20.98;70.95;98404.69;4968976;28;20812;-62
2021/08/09 00:04:10;;;;;;;6.80;4.03;;;;;;;20.86;71.33;98408.06;4971682;28;20019;-61
2021/08/09 00:06:35;;;;;;;8.77;3.83;;;;;;;20.90;71.22;98405.75;4971384;28;20517;-60
2021/08/09 00:09:02;;;;;;;7.65;3.90;;;;;;;20.86;71.29;98409.88;4972653;28;20038;-62
2021/08/09 00:11:28;;;;;;;6.75;3.80;;;;;;;20.80;71.58;98406.25;4982243;28;20060;-62
2021/08/09 00:13:54;;;;;;;7.72;4.05;;;;;;;20.70;71.75;98398.03;4975416;28;20043;-61
2021/08/09 00:16:19;;;;;;;9.18;3.88;;;;;;;20.81;71.75;98409.69;4960563;28;20035;-61
2021/08/09 00:18:48;;;;;;;8.73;4.00;;;;;;;20.51;71.90;98365.41;4976006;28;20030;-60
2021/08/09 00:21:18;;;;;;;8.45;3.72;;;;;;;20.73;72.12;98413.41;4973967;28;20026;-61
2021/08/09 00:23:43;;;;;;;;;;;;;;;20.67;71.83;98414.28;4978084;28;20126;-61
2021/08/09 00:26:09;;;;;;;9.75;3.90;;;;;;;20.64;71.98;98406.78;4979402;28;20052;-61
2021/08/09 00:28:34;;;;;;;9.63;4.20;;;;;;;20.41;71.73;98372.97;4979842;28;20216;-61
2021/08/09 00:31:00;;;;;;;11.48;4.00;;;;;;;20.67;71.92;98416.94;4963386;28;20030;-61
2021/08/09 00:33:25;;;;;;;7.22;4.38;;;;;;;20.61;72.05;98415.13;4980986;28;20037;-60
2021/08/09 00:35:51;;;;;;;5.90;3.70;;;;;;;20.62;72.18;98414.91;4980310;28;20026;-61
2021/08/09 00:38:16;;;;;;;6.55;3.65;;;;;;;20.59;72.33;98415.34;4976263;28;20034;-61
2021/08/09 00:40:42;;;;;;;8.32;4.22;;;;;;;20.57;72.01;98414.72;4975388;28;20034;-61
2021/08/09 00:43:07;;;;;;;7.75;3.55;;;;;;;20.58;71.96;98413.72;4978325;28;20479;-61
2021/08/09 00:45:32;;;;;;;6.15;3.67;;;;;;;20.21;71.97;98367.88;4973305;28;20085;-62
2021/08/09 00:47:58;;;;;;;7.07;3.80;;;;;;;20.51;72.24;98410.31;4986218;28;20022;-61
2021/08/09 00:50:23;;;;;;;6.15;3.65;;;;;;;20.48;72.08;98422.13;4975248;28;20039;-61
2021/08/09 00:52:50;;;;;;;5.75;3.45;;;;;;;20.19;71.88;98367.25;4980762;28;20034;-61
2021/08/09 00:55:16;;;;;;;8.88;3.97;;;;;;;20.32;72.09;98378.53;4958181;28;20023;-62
2021/08/09 00:57:42;;;;;;;6.93;3.70;;;;;;;20.20;72.12;98366.22;4989205;28;20122;-61
2021/08/09 01:00:07;;;;;;;6.65;3.92;;;;;;;20.55;71.61;98422.88;4992770;28;20030;-61
2021/08/09 01:02:33;;;;;;;8.60;3.70;;;;;;;20.54;71.28;98420.44;4976763;28;20037;-60
2021/08/09 01:05:00;;;;;;;8.48;3.70;;;;;;;20.53;71.21;98422.28;4977331;28;20103;-61
2021/08/09 01:07:27;;;;;;;7.78;3.97;;;;;;;20.52;71.37;98417.22;4975441;28;20023;-61
2021/08/09 01:09:58;;;;;;;7.38;4.00;;;;;;;20.53;70.96;98427.56;4982109;28;20035;-61
2021/08/09 01:12:29;;;;;;;7.93;3.67;;;;;;;20.57;71.22;98427.91;4979846;28;20080;-60
2021/08/09 01:15:27;;;;;;;7.78;3.80;;;;;;;20.21;71.38;98373.94;4957364;28;20403;-61
2021/08/09 01:17:55;;;;;;;7.57;3.65;;;;;;;20.50;71.11;98427.19;4978416;28;20134;-61
2021/08/09 01:20:39;;;;;;;8.52;4.13;;;;;;;20.40;71.16;98427.63;4963484;28;20052;-61
2021/08/09 01:23:29;;;;;;;7.50;3.78;;;;;;;20.49;70.96;98425.56;4981164;28;20489;-61
2021/08/09 01:26:37;;;;;;;7.22;3.65;;;;;;;20.36;71.24;98421.16;4977958;28;20026;-61
2021/08/09 01:29:08;;;;;;;6.32;3.63;;;;;;;20.39;71.62;98430.47;4977036;28;20049;-60
2021/08/09 01:31:53;;;;;;;7.05;3.70;;;;;;;20.38;71.60;98434.16;4980051;28;20052;-61
2021/08/09 01:34:19;;;;;;;8.45;3.70;;;;;;;20.32;71.85;98446.38;4975037;28;20576;-59
2021/08/09 01:36:47;;;;;;;8.27;3.80;;;;;;;20.31;71.83;98437.63;4987943;28;20575;-60
2021/08/09 01:39:14;;;;;;;7.32;3.65;;;;;;;20.32;72.00;98438.47;4972721;28;20571;-60
2021/08/09 01:41:40;;;;;;;6.63;3.65;;;;;;;20.32;71.96;98436.63;4975542;28;20015;-61
2021/08/09 01:44:06;;;;;;;10.30;3.90;;;;;;;20.28;72.31;98445.16;4981162;28;20100;-62
2021/08/09 01:46:33;;;;;;;10.52;4.03;;;;;;;20.34;71.60;98436.41;4973129;28;20069;-61
2021/08/09 01:48:59;;;;;;;6.20;3.83;;;;;;;20.14;69.29;98389.00;4990576;28;20054;-61
2021/08/09 01:51:25;;;;;;;6.97;3.60;;;;;;;20.49;69.46;98444.03;4978484;28;20038;-60
2021/08/09 01:53:53;;;;;;;6.47;3.40;;;;;;;20.46;69.66;98437.38;4978807;28;20033;-60
2021/08/09 01:56:19;;;;;;;6.55;3.85;;;;;;;20.46;70.61;98449.75;4978286;28;20084;-61
2021/08/09 01:58:45;;;;;;;9.38;3.60;;;;;;;20.42;70.69;98443.28;4972161;28;20034;-61
2021/08/09 02:01:10;;;;;;;10.05;4.03;;;;;;;20.29;71.32;98449.44;4982866;28;20676;-61
2021/08/09 02:03:35;;;;;;;6.28;3.35;;;;;;;20.29;71.01;98449.44;4973594;28;20640;-60
2021/08/09 02:06:01;;;;;;;7.68;4.05;;;;;;;20.28;71.36;98447.81;4994049;28;20029;-61
2021/08/09 02:08:27;;;;;;;8.48;3.63;;;;;;;20.30;71.13;98451.88;4978373;28;20512;-61
2021/08/09 02:11:00;;;;;;;7.03;3.75;;;;;;;20.25;71.48;98445.59;4976182;28;20078;-61
2021/08/09 02:13:39;;;;;;;8.90;3.50;;;;;;;20.21;71.93;98450.50;4979647;28;20117;-60
2021/08/09 02:16:10;;;;;;;6.90;3.80;;;;;;;20.15;72.22;98446.88;4994773;28;20124;-60
2021/08/09 02:19:01;;;;;;;7.53;3.42;;;;;;;20.14;72.24;98452.34;4980064;28;20477;-60
2021/08/09 02:21:29;;;;;;;6.55;3.60;;;;;;;20.21;71.54;98450.50;4973553;28;20052;-62
2021/08/09 02:23:59;;;;;;;8.25;3.92;;;;;;;19.97;71.92;98420.38;4995760;28;20113;-61
2021/08/09 02:26:30;;;;;;;6.47;3.58;;;;;;;20.08;72.72;98455.81;4979110;28;20026;-60
2021/08/09 02:29:01;;;;;;;7.40;3.63;;;;;;;19.97;73.36;98444.13;4980352;28;20551;-62
2021/08/09 02:31:29;;;;;;;7.18;3.50;;;;;;;19.72;72.60;98396.50;4957304;28;20402;-61
2021/08/09 02:33:54;;;;;;;7.55;3.53;;;;;;;20.03;72.53;98443.25;4995511;28;20052;-61
2021/08/09 02:36:20;;;;;;;7.10;3.55;;;;;;;20.04;72.39;98447.53;4975951;28;20581;-60
2021/08/09 02:38:46;;;;;;;6.78;3.40;;;;;;;20.02;72.48;98451.38;4979711;28;20772;-61
2021/08/09 02:41:11;;;;;;;9.68;4.00;;;;;;;19.96;72.61;98442.47;4979001;28;20026;-60
2021/08/09 02:43:37;;;;;;;7.95;3.60;;;;;;;19.93;72.89;98445.53;4974541;28;20030;-60
2021/08/09 02:46:03;;;;;;;8.00;4.07;;;;;;;19.98;72.47;98445.72;4996474;28;20109;-61
2021/08/09 02:48:31;;;;;;;8.68;3.90;;;;;;;19.68;72.43;98409.28;4973191;28;20038;-62
2021/08/09 02:50:56;;;;;;;7.63;3.63;;;;;;;19.98;72.28;98448.34;4977328;28;20102;-61
2021/08/09 02:53:22;;;;;;;8.02;3.35;;;;;;;19.68;71.73;98403.19;4968175;28;20105;-61
2021/08/09 02:55:54;;;;;;;6.88;3.67;;;;;;;20.01;72.19;98462.97;4978141;28;20031;-60
2021/08/09 02:58:20;;;;;;;6.88;3.80;;;;;;;20.00;72.31;98456.06;4971188;28;20134;-61
2021/08/09 03:00:45;;;;;;;6.90;3.80;;;;;;;20.08;71.68;98461.09;4977044;28;20050;-60
2021/08/09 03:03:11;;;;;;;7.63;3.78;;;;;;;19.94;72.03;98453.25;4978660;28;20042;-58
2021/08/09 03:05:39;;;;;;;6.20;3.80;;;;;;;19.87;71.96;98452.44;4984969;28;20109;-61
2021/08/09 03:08:05;;;;;;;8.40;3.90;;;;;;;19.98;72.07;98466.81;4978676;28;20558;-61
2021/08/09 03:10:31;;;;;;;7.90;3.75;;;;;;;19.93;72.43;98462.19;4980011;28;20118;-61
2021/08/09 03:12:58;;;;;;;8.77;3.53;;;;;;;19.98;72.11;98469.47;4983305;28;20109;-61
2021/08/09 03:15:24;;;;;;;9.43;3.72;;;;;;;19.95;72.04;98459.31;4980396;28;20102;-61
2021/08/09 03:17:49;;;;;;;5.95;3.50;;;;;;;19.93;72.38;98456.09;4996798;28;20030;-61
2021/08/09 03:20:14;;;;;;;8.10;3.92;;;;;;;19.72;71.82;98428.13;4975862;28;20536;-61
2021/08/09 03:22:40;;;;;;;6.63;3.55;;;;;;;19.98;71.94;98461.56;4979035;28;20038;-60
2021/08/09 03:25:06;;;;;;;8.20;3.80;;;;;;;19.91;72.50;98452.84;4961297;28;20080;-61
2021/08/09 03:27:31;;;;;;;11.57;3.80;;;;;;;19.85;72.55;98456.34;4974361;28;20823;-62
2021/08/09 03:29:57;;;;;;;6.70;3.60;;;;;;;19.90;72.40;98467.06;4979583;28;20040;-61
2021/08/09 03:32:22;;;;;;;9.05;3.88;;;;;;;19.86;72.34;98452.66;4981715;28;20129;-62
2021/08/09 03:34:47;;;;;;;6.57;3.53;;;;;;;19.86;72.36;98465.84;4981073;28;20589;-62
2021/08/09 03:37:13;;;;;;;8.05;3.80;;;;;;;19.84;72.46;98467.88;4976401;28;20023;-60
2021/08/09 03:39:38;;;;;;;6.82;3.85;;;;;;;19.59;72.32;98424.53;4987232;28;20669;-62
2021/08/09 03:42:04;;;;;;;7.80;3.63;;;;;;;19.87;72.22;98460.38;4972436;28;20114;-62
2021/08/09 03:44:29;;;;;;;6.68;3.55;;;;;;;19.88;72.24;98454.09;4981224;28;20568;-61
2021/08/09 03:46:54;;;;;;;7.05;3.55;;;;;;;19.89;72.09;98465.44;4973947;28;20030;-62
2021/08/09 03:49:20;;;;;;;6.13;3.50;;;;;;;19.91;72.03;98474.75;4983366;28;20037;-61
2021/08/09 03:51:45;;;;;;;6.50;3.80;;;;;;;19.92;71.90;98476.38;4978898;28;20030;-61
2021/08/09 03:54:11;;;;;;;5.70;3.60;;;;;;;19.87;71.85;98476.19;4978140;28;20383;-62
2021/08/09 03:56:36;;;;;;;8.38;3.60;;;;;;;19.89;71.83;98481.28;4974145;28;20135;-62
2021/08/09 03:59:02;;;;;;;7.47;3.38;;;;;;;19.92;72.24;98489.59;4981506;28;20780;-61
2021/08/09 04:01:27;;;;;;;7.25;3.80;;;;;;;19.59;71.90;98444.81;4973274;28;20400;-62
2021/08/09 04:03:53;;;;;;;7.13;3.65;;;;;;;19.81;71.92;98484.16;4974847;28;20469;-62
2021/08/09 04:06:20;;;;;;;6.60;3.63;;;;;;;19.87;71.81;98488.59;4977281;28;20041;-60
2021/08/09 04:08:48;;;;;;;9.13;3.90;;;;;;;19.88;71.79;98500.78;4979342;28;20123;-62
2021/08/09 04:11:13;;;;;;;6.82;3.35;;;;;;;19.87;72.15;98509.69;4984739;28;20511;-62
2021/08/09 04:13:41;;;;;;;9.95;4.07;;;;;;;19.85;71.72;98499.34;4975019;28;20034;-61
2021/08/09 04:16:06;;;;;;;7.78;3.70;;;;;;;19.61;71.63;98455.16;4975726;28;20197;-61
2021/08/09 04:18:32;;;;;;;6.25;3.60;;;;;;;19.92;71.23;98510.69;4981771;28;20061;-62
2021/08/09 04:20:57;;;;;;;6.35;3.53;;;;;;;19.94;71.37;98513.94;4971455;28;20037;-61
2021/08/09 04:23:22;;;;;;;7.07;3.50;;;;;;;19.66;71.27;98474.63;4979860;28;20018;-62
2021/08/09 04:25:48;;;;;;;7.53;3.88;;;;;;;19.96;70.89;98519.81;4980803;28;20022;-62
2021/08/09 04:28:13;;;;;;;5.93;3.40;;;;;;;20.04;70.72;98523.25;4982518;28;20026;-61
2021/08/09 04:30:39;;;;;;;7.25;4.00;;;;;;;19.75;70.49;98475.22;4973276;28;20030;-62
2021/08/09 04:33:04;;;;;;;9.48;3.42;;;;;;;19.70;70.58;98475.00;4974404;28;20034;-61
2021/08/09 04:35:29;;;;;;;7.20;3.70;;;;;;;20.06;70.01;98535.22;4981017;28;20132;-60
2021/08/09 04:37:55;;;;;;;7.30;3.67;;;;;;;20.08;69.99;98535.00;4980009;28;20485;-62
2021/08/09 04:40:21;;;;;;;7.20;3.40;;;;;;;20.19;69.10;98533.53;4983243;28;20556;-62
2021/08/09 04:42:47;;;;;;;5.75;3.30;;;;;;;20.16;69.63;98532.13;4980678;28;20139;-62
2021/08/09 04:45:12;;;;;;;7.88;3.42;;;;;;;20.23;69.70;98537.41;4982793;28;20572;-62
2021/08/09 04:47:38;;;;;;;8.43;3.92;;;;;;;20.14;70.29;98545.53;4973256;28;20030;-62
2021/08/09 04:50:04;;;;;;;6.60;3.30;;;;;;;20.13;69.87;98535.19;4978966;28;20058;-58
2021/08/09 04:52:30;;;;;;;6.50;3.28;;;;;;;20.15;70.36;98543.69;4979595;28;20034;-62
2021/08/09 04:54:55;;;;;;;6.40;3.33;;;;;;;20.17;69.59;98546.97;4978829;28;20081;-60
2021/08/09 04:57:21;;;;;;;7.97;4.15;;;;;;;20.23;69.83;98551.41;4982906;28;20097;-62
2021/08/09 04:59:46;;;;;;;8.85;3.50;;;;;;;20.16;69.95;98550.63;4979476;28;20042;-60
2021/08/09 05:02:12;;;;;;;6.97;3.58;;;;;;;20.12;70.04;98552.84;4977035;28;20046;-62
2021/08/09 05:04:37;;;;;;;7.57;3.53;;;;;;;20.23;69.83;98553.25;4976724;28;20041;-61
2021/08/09 05:07:03;;;;;;;8.00;3.80;;;;;;;20.17;69.93;98553.06;4964175;28;20504;-60
2021/08/09 05:09:29;;;;;;;7.28;3.70;;;;;;;19.92;69.80;98512.53;4965852;28;20029;-61
2021/08/09 05:11:54;;;;;;;7.18;3.53;;;;;;;19.92;70.21;98518.59;4977953;28;20554;-62
2021/08/09 05:14:19;;;;;;;7.57;3.45;;;;;;;20.21;70.02;98568.47;4979097;28;20137;-62
2021/08/09 05:16:46;;;;;;;8.60;3.40;;;;;;;20.12;70.50;98562.63;4980596;28;20092;-61
2021/08/09 05:19:12;;;;;;;7.13;3.47;;;;;;;19.95;70.34;98543.75;4975588;28;20084;-61
2021/08/09 05:21:37;;;;;;;9.45;3.42;;;;;;;20.09;70.61;98569.09;4970626;28;20561;-60
2021/08/09 05:24:05;;;;;;;10.27;3.55;;;;;;;19.95;71.19;98563.06;4974900;28;20096;-62
2021/08/09 05:26:30;;;;;;;8.05;3.70;;;;;;;19.99;70.53;98563.47;4971203;28;20092;-62
2021/08/09 05:28:58;;;;;;;6.25;3.45;;;;;;;19.97;70.34;98560.22;4981364;28;20038;-62
2021/08/09 05:31:24;;;;;;;8.77;3.83;;;;;;;19.90;70.22;98535.69;4974457;28;20030;-61
2021/08/09 05:33:49;;;;;;;9.57;3.45;;;;;;;19.92;70.51;98546.81;4994985;28;20069;-62
2021/08/09 05:36:15;;;;;;;8.00;3.65;;;;;;;19.96;71.40;98582.34;4977616;28;20076;-60
2021/08/09 05:38:40;;;;;;;7.25;3.50;;;;;;;20.01;71.28;98593.09;4974269;28;20498;-61
2021/08/09 05:41:06;;;;;;;8.20;3.35;;;;;;;19.97;71.50;98589.25;4969979;28;20073;-62
2021/08/09 05:43:31;;;;;;;8.68;3.38;;;;;;;20.03;71.17;98600.81;4976416;28;20034;-62
2021/08/09 05:45:57;;;;;;;6.80;3.45;;;;;;;20.11;71.13;98606.66;4975324;28;20030;-61
2021/08/09 05:48:22;;;;;;;10.82;3.72;;;;;;;20.14;70.84;98598.31;4974095;28;20038;-61
2021/08/09 05:50:48;;;;;;;8.55;3.90;;;;;;;20.09;70.63;98598.13;4978164;28;20685;-62
2021/08/09 05:53:13;;;;;;;9.23;4.00;;;;;;;19.90;71.17;98551.50;4971512;28;20156;-62
2021/08/09 05:55:38;;;;;;;6.72;3.40;;;;;;;20.21;71.14;98587.75;4977320;28;20389;-62
2021/08/09 05:58:04;;;;;;;7.70;4.00;;;;;;;20.17;71.02;98597.94;4977859;28;20034;-62
2021/08/09 06:00:29;;;;;;;7.38;3.20;;;;;;;20.27;70.63;98588.75;4975769;28;20034;-62
2021/08/09 06:02:55;;;;;;;7.03;3.80;;;;;;;20.32;70.45;98586.31;4973959;28;20066;-61
2021/08/09 06:05:20;;;;;;;6.50;3.63;;;;;;;20.34;70.73;98594.84;4980134;28;20030;-61
2021/08/09 06:07:45;;;;;;;5.63;3.38;;;;;;;20.00;71.33;98551.06;4982323;28;20061;-61
2021/08/09 06:10:11;;;;;;;7.50;3.63;;;;;;;20.12;72.10;98589.00;4973436;28;20033;-62
2021/08/09 06:12:37;;;;;;;9.32;3.70;;;;;;;20.25;71.29;98591.59;4981645;28;20262;-62
2021/08/09 06:15:07;;;;;;;8.25;3.75;;;;;;;20.32;71.40;98604.78;4982888;28;20638;-62
2021/08/09 06:17:34;;;;;;;7.80;4.15;;;;;;;20.31;71.63;98606.59;4970195;28;20093;-62
2021/08/09 06:19:59;;;;;;;8.25;3.92;;;;;;;20.34;71.84;98618.59;4970514;28;20043;-61
2021/08/09 06:22:25;;;;;;;8.73;3.70;;;;;;;20.25;71.33;98615.38;4992805;28;20922;-61
2021/08/09 06:24:50;;;;;;;10.23;3.80;;;;;;;20.37;70.97;98626.09;4970534;28;20058;-62
2021/08/09 06:27:15;;;;;;;7.40;3.65;;;;;;;20.36;70.55;98622.63;4975070;28;20149;-61
2021/08/09 06:29:41;;;;;;;7.07;3.42;;;;;;;20.30;71.42;98623.47;4973808;28;20109;-64
2021/08/09 06:32:06;;;;;;;7.70;3.35;;;;;;;19.75;69.07;98546.44;4974522;28;21306;-62
2021/08/09 06:34:32;;;;;;;8.30;3.42;;;;;;;20.29;69.31;98636.88;4979385;28;20034;-61
2021/08/09 06:36:57;;;;;;;7.82;3.38;;;;;;;19.96;69.50;98585.78;4970364;28;20031;-62
2021/08/09 06:39:23;;;;;;;6.68;3.30;;;;;;;20.25;69.77;98643.59;4973856;28;20026;-62
2021/08/09 06:41:48;;;;;;;6.38;3.40;;;;;;;19.90;69.08;98593.72;4969402;28;20069;-61
2021/08/09 06:44:14;;;;;;;7.03;3.50;;;;;;;20.17;69.91;98642.78;4982249;28;20034;-62
2021/08/09 06:46:39;;;;;;;9.35;3.50;;;;;;;20.32;69.29;98647.03;4984360;28;20056;-62
2021/08/09 06:49:05;;;;;;;6.70;3.67;;;;;;;20.38;69.30;98656.75;4967685;28;20022;-62
2021/08/09 06:51:30;;;;;;;7.63;3.72;;;;;;;20.43;69.72;98656.97;4981906;28;20034;-62
2021/08/09 06:53:56;;;;;;;7.63;3.80;;;;;;;20.43;69.28;98666.72;4982243;28;20037;-62
2021/08/09 06:56:21;;;;;;;7.80;3.58;;;;;;;20.44;68.99;98649.84;4984258;28;20096;-62
2021/08/09 06:58:47;;;;;;;5.53;3.30;;;;;;;20.48;68.20;98661.59;4961022;28;20106;-61
2021/08/09 07:01:12;;;;;;;8.15;3.30;;;;;;;20.51;68.71;98645.34;4970300;28;20031;-61
2021/08/09 07:03:37;;;;;;;7.88;3.70;;;;;;;20.53;69.54;98651.22;4977948;28;20039;-61
2021/08/09 07:06:03;;;;;;;6.75;3.30;;;;;;;20.53;69.52;98654.69;4972337;28;20125;-64
2021/08/09 07:08:28;;;;;;;6.25;3.35;;;;;;;20.60;69.49;98653.84;4980373;28;20389;-61
2021/08/09 07:10:54;;;;;;;6.20;3.53;;;;;;;20.21;69.33;98600.16;4991380;28;20108;-61
2021/08/09 07:13:20;;;;;;;7.72;3.47;;;;;;;20.29;68.49;98611.28;4980127;28;20027;-60
2021/08/09 07:15:48;;;;;;;6.90;3.25;;;;;;;20.49;68.78;98661.41;4977529;28;20460;-61
2021/08/09 07:18:13;;;;;;;6.68;3.20;;;;;;;20.56;69.16;98656.09;4982647;28;20026;-62
2021/08/09 07:20:39;;;;;;;8.10;3.28;;;;;;;20.60;69.02;98656.50;4982341;28;20030;-62
2021/08/09 07:23:04;;;;;;;5.47;2.90;;;;;;;20.53;68.98;98654.69;4974970;28;20093;-61
2021/08/09 07:25:30;;;;;;;8.73;3.40;;;;;;;20.50;68.56;98638.47;4983158;28;20030;-62
2021/08/09 07:27:55;;;;;;;8.85;3.65;;;;;;;20.66;68.70;98658.31;4976166;28;20115;-62
2021/08/09 07:30:22;;;;;;;6.50;3.40;;;;;;;20.68;68.89;98665.03;4977180;28;20042;-61
2021/08/09 07:32:48;;;;;;;7.60;3.15;;;;;;;20.70;68.87;98664.84;4964897;28;20566;-62
2021/08/09 07:35:13;;;;;;;6.72;3.25;;;;;;;20.80;68.67;98667.03;4976652;28;20030;-61
2021/08/09 07:37:38;;;;;;;7.47;3.80;;;;;;;20.81;69.87;98658.91;4971858;28;20102;-61
2021/08/09 07:40:05;;;;;;;8.68;3.38;;;;;;;20.61;68.95;98631.72;4984786;28;20027;-62
2021/08/09 07:42:31;;;;;;;6.38;3.30;;;;;;;20.54;68.64;98627.25;4973797;28;20397;-62
2021/08/09 07:44:57;;;;;;;7.60;3.50;;;;;;;20.85;68.24;98672.50;4953442;28;20041;-62
2021/08/09 07:47:23;;;;;;;6.82;3.28;;;;;;;20.81;68.31;98668.63;4974613;28;20480;-62
2021/08/09 07:49:48;;;;;;;9.68;3.50;;;;;;;20.86;68.27;98667.00;4985316;28;20034;-62
2021/08/09 07:52:13;;;;;;;5.90;3.38;;;;;;;20.90;68.30;98665.56;4974275;28;20038;-61
2021/08/09 07:54:39;;;;;;;8.23;3.50;;;;;;;20.91;68.38;98666.38;4979131;28;20037;-62
2021/08/09 07:57:06;;;;;;;6.07;3.50;;;;;;;21.02;67.57;98670.97;4965736;28;20085;-61
2021/08/09 07:59:32;;;;;;;8.55;3.17;;;;;;;20.85;67.64;98631.03;4977287;28;20483;-61
2021/08/09 08:01:58;;;;;;;6.85;3.35;;;;;;;21.14;67.28;98676.44;4978242;28;20030;-61
2021/08/09 08:04:23;;;;;;;8.82;3.38;;;;;;;21.05;68.07;98677.69;4978787;28;20054;-61
2021/08/09 08:06:49;;;;;;;7.68;3.08;;;;;;;21.11;67.79;98687.41;4973029;28;20153;-61
2021/08/09 08:09:14;;;;;;;6.97;3.50;;;;;;;20.83;68.28;98637.56;4977500;28;20326;-61
2021/08/09 08:11:40;;;;;;;9.23;3.25;;;;;;;21.20;67.40;98686.16;4969182;28;20034;-61
2021/08/09 08:14:05;;;;;;;9.27;3.25;;;;;;;21.29;67.14;98684.88;4989144;28;20109;-61
2021/08/09 08:16:31;;;;;;;7.55;3.30;;;;;;;21.87;65.66;98686.56;4976648;28;20400;-61
2021/08/09 08:18:56;;;;;;;7.20;3.47;;;;;;;22.56;63.03;98689.22;4987271;28;20038;-61
2021/08/09 08:21:22;;;;;;;7.63;3.60;;;;;;;22.84;60.62;98640.16;4971411;28;20030;-61
2021/08/09 08:23:47;;;;;;;8.10;3.00;;;;;;;23.61;59.07;98677.44;4971990;28;20092;-61
2021/08/09 08:26:12;;;;;;;7.63;3.30;;;;;;;24.17;57.84;98672.69;4979773;28;20019;-61
2021/08/09 08:28:38;;;;;;;7.00;3.20;;;;;;;24.74;55.72;98669.38;4980197;28;20517;-61
2021/08/09 08:31:05;;;;;;;8.13;3.20;;;;;;;25.17;54.44;98680.56;4975508;28;20058;-61
2021/08/09 08:33:30;;;;;;;5.95;2.88;;;;;;;25.29;54.56;98691.19;4972924;28;20062;-61
2021/08/09 08:35:56;;;;;;;8.57;3.13;;;;;;;25.30;52.96;98658.22;4986877;28;20744;-61
2021/08/09 08:38:21;;;;;;;7.30;3.38;;;;;;;25.43;52.84;98649.13;4976106;28;20033;-62
2021/08/09 08:40:49;;;;;;;6.53;2.85;;;;;;;25.66;52.54;98682.78;4965559;28;20528;-61
2021/08/09 08:43:21;;;;;;;6.88;2.85;;;;;;;25.96;52.37;98685.16;4973138;28;20373;-61
2021/08/09 08:45:54;;;;;;;9.65;3.30;;;;;;;26.24;51.32;98675.41;4973095;28;20248;-60
2021/08/09 08:48:20;;;;;;;7.68;3.10;;;;;;;26.37;49.80;98683.06;4968507;28;20412;-61
2021/08/09 08:50:45;;;;;;;5.68;2.80;;;;;;;26.65;46.68;98690.13;4975347;28;20037;-60
2021/08/09 08:53:10;;;;;;;7.10;2.88;;;;;;;27.04;47.57;98667.91;4972287;28;20023;-60
2021/08/09 08:55:36;;;;;;;6.15;2.70;;;;;;;27.36;47.59;98700.03;4970659;28;20035;-60
2021/08/09 08:58:01;;;;;;;9.63;3.13;;;;;;;27.19;48.39;98696.59;4973154;28;20030;-60
2021/08/09 09:00:37;;;;;;;6.20;2.83;;;;;;;27.03;48.55;98675.09;4975061;28;20030;-60
2021/08/09 09:03:20;;;;;;;6.80;3.20;;;;;;;26.54;50.53;98672.38;4975685;28;20034;-60
2021/08/09 09:06:02;;;;;;;6.60;2.90;;;;;;;25.24;54.33;98664.50;4971740;28;20556;-60
2021/08/09 09:08:37;;;;;;;6.07;3.35;;;;;;;25.70;54.19;98706.03;4972026;28;20033;-60
2021/08/09 09:11:03;;;;;;;5.00;2.78;;;;;;;25.49;54.09;98718.16;4970952;28;20047;-60
2021/08/09 09:13:29;;;;;;;6.63;3.28;;;;;;;24.55;55.29;98713.94;4967686;28;21065;-60
2021/08/09 09:15:56;;;;;;;5.30;2.78;;;;;;;24.23;57.28;98710.78;4961615;28;20603;-61
2021/08/09 09:18:23;;;;;;;6.95;3.03;;;;;;;23.88;57.23;98711.56;4965398;28;20061;-60
2021/08/09 09:20:48;;;;;;;7.05;3.10;;;;;;;24.18;56.88;98711.47;4976612;28;20282;-61
2021/08/09 09:23:20;;;;;;;5.47;2.97;;;;;;;24.81;54.08;98655.97;4967830;28;20042;-60
2021/08/09 09:25:46;;;;;;;7.00;3.22;;;;;;;25.15;53.24;98695.94;4980664;28;20193;-60
2021/08/09 09:28:22;;;;;;;5.95;2.90;;;;;;;24.67;54.26;98700.59;4972103;28;20124;-60
2021/08/09 09:30:48;;;;;;;7.15;3.00;;;;;;;24.21;56.03;98702.25;4977944;28;20515;-59
2021/08/09 09:33:13;;;;;;;7.63;3.55;;;;;;;23.87;57.14;98720.56;4952609;28;20026;-59
2021/08/09 09:35:39;;;;;;;5.55;2.88;;;;;;;23.81;57.60;98712.72;4974727;28;20030;-60
2021/08/09 09:38:04;;;;;;;5.85;3.72;;;;;;;23.53;58.33;98695.53;4970341;28;20025;-60
2021/08/09 09:40:40;;;;;;;5.90;3.42;;;;;;;23.87;58.65;98704.63;4975548;28;20033;-60
2021/08/09 09:43:36;;;;;;;8.38;3.60;;;;;;;23.88;58.56;98702.81;4970074;28;20061;-60
2021/08/09 09:46:01;;;;;;;8.35;3.38;;;;;;;24.04;58.60;98709.28;4972717;28;20674;-61
2021/08/09 09:48:32;;;;;;;8.70;3.67;;;;;;;23.89;58.41;98665.38;4983241;28;20043;-60
2021/08/09 09:51:12;;;;;;;6.10;3.22;;;;;;;24.25;58.80;98708.72;4975204;28;20027;-60
2021/08/09 09:53:39;;;;;;;6.82;3.00;;;;;;;24.45;56.95;98712.88;4974951;28;20030;-60
2021/08/09 09:56:05;;;;;;;6.57;3.15;;;;;;;24.42;55.52;98697.38;4979977;28;20026;-60
2021/08/09 09:58:31;;;;;;;8.07;3.10;;;;;;;24.43;55.10;98683.06;4975868;28;20470;-62
2021/08/09 10:00:58;;;;;;;7.93;3.40;;;;;;;24.65;55.27;98701.91;4972198;28;20062;-61
2021/08/09 10:03:24;;;;;;;7.22;3.40;;;;;;;24.69;54.93;98692.41;4967268;28;20042;-60
2021/08/09 10:05:50;;;;;;;6.20;2.92;;;;;;;24.84;54.80;98692.69;4970198;28;20038;-61
2021/08/09 10:08:17;;;;;;;8.32;3.42;;;;;;;24.75;54.66;98672.84;4969794;28;20031;-62
2021/08/09 10:10:48;;;;;;;6.68;3.15;;;;;;;24.92;54.45;98696.88;4962012;28;20041;-60
2021/08/09 10:13:16;;;;;;;7.97;3.05;;;;;;;24.93;54.00;98693.97;4965566;28;20038;-60
2021/08/09 10:15:42;;;;;;;7.68;2.90;;;;;;;24.72;53.80;98655.53;4969719;28;20517;-60
2021/08/09 10:18:08;;;;;;;7.85;3.13;;;;;;;24.97;53.84;98683.66;4967751;28;20034;-60
2021/08/09 10:20:33;;;;;;;9.02;3.67;;;;;;;25.12;53.92;98691.13;4971177;28;20555;-60
2021/08/09 10:23:04;;;;;;;7.85;3.03;;;;;;;25.13;52.88;98690.91;4978860;28;20587;-60
2021/08/09 10:25:47;;;;;;;6.95;2.90;;;;;;;25.37;53.04;98690.78;4972253;28;20030;-60
2021/08/09 10:28:13;;;;;;;6.80;3.10;;;;;;;25.43;52.53;98697.03;4975352;28;20085;-61
2021/08/09 10:30:38;;;;;;;6.53;3.15;;;;;;;25.39;53.10;98702.03;4974229;28;20088;-60
2021/08/09 10:33:11;;;;;;;8.57;3.10;;;;;;;25.41;52.77;98691.94;4976632;28;20453;-60
2021/08/09 10:35:39;;;;;;;8.30;3.20;;;;;;;25.50;52.23;98685.19;4971843;28;20034;-60
2021/08/09 10:38:17;;;;;;;8.25;3.00;;;;;;;25.44;51.85;98688.00;4971595;28;20420;-60
2021/08/09 10:40:44;;;;;;;8.85;2.90;;;;;;;25.42;51.47;98693.53;4973559;28;20030;-61
2021/08/09 10:43:10;;;;;;;9.20;3.33;;;;;;;25.48;52.36;98691.78;4977719;28;20073;-60
2021/08/09 10:45:40;;;;;;;9.15;3.30;;;;;;;25.31;53.40;98651.84;4972631;28;20606;-60
2021/08/09 10:48:09;;;;;;;8.77;3.10;;;;;;;25.71;52.78;98690.84;4980512;28;20019;-60
2021/08/09 10:50:39;;;;;;;8.40;2.90;;;;;;;25.44;50.56;98648.88;4977714;28;20023;-60
2021/08/09 10:53:28;;;;;;;6.40;3.17;;;;;;;25.65;51.97;98681.97;4977060;28;20574;-60
2021/08/09 10:55:54;;;;;;;;;;;;;;;25.71;51.72;98699.63;4975191;28;20130;-61
2021/08/09 10:58:41;;;;;;;8.65;3.25;;;;;;;25.78;52.22;98696.81;4977047;28;19949;-61
2021/08/09 11:01:11;;;;;;;8.63;3.15;;;;;;;25.84;51.42;98695.84;4975487;28;20031;-61
2021/08/09 11:03:55;;;;;;;;;;;;;;;25.89;52.23;98693.25;4971998;28;20030;-62
2021/08/09 11:06:38;;;;;;;7.30;2.80;;;;;;;25.90;52.49;98694.91;4963981;28;20174;-60
2021/08/09 11:09:32;;;;;;;7.45;2.90;;;;;;;26.02;52.50;98694.03;4968540;28;20039;-61
2021/08/09 11:12:14;;;;;;;8.77;3.03;;;;;;;25.99;53.18;98689.16;4966460;28;20088;-60
2021/08/09 11:14:58;;;;;;;7.70;3.17;;;;;;;26.04;51.46;98691.91;4966907;28;20034;-60
2021/08/09 11:17:24;;;;;;;8.32;2.88;;;;;;;25.79;51.52;98677.16;4969393;28;20035;-61
2021/08/09 11:19:50;;;;;;;10.30;3.20;;;;;;;25.56;51.62;98656.00;4971218;28;20027;-61
2021/08/09 11:22:19;;;;;;;8.77;3.15;;;;;;;25.86;52.67;98690.28;4961784;28;20043;-61
2021/08/09 11:24:44;;;;;;;7.25;2.83;;;;;;;25.99;51.32;98689.16;4957354;28;20038;-61
2021/08/09 11:27:10;;;;;;;7.15;3.20;;;;;;;26.05;50.85;98688.22;4975279;28;20685;-61
2021/08/09 11:29:55;;;;;;;7.85;2.95;;;;;;;26.25;51.40;98685.03;4975808;28;20070;-61
2021/08/09 11:32:37;;;;;;;10.30;2.85;;;;;;;26.14;50.93;98684.09;4970169;28;20033;-60
2021/08/09 11:35:03;;;;;;;9.10;3.13;;;;;;;25.92;51.33;98654.69;4975596;28;20039;-60
2021/08/09 11:37:29;;;;;;;8.35;3.03;;;;;;;25.96;51.84;98649.72;4974865;28;20037;-60